Hlavní strana
METAR-TAF:

METAR-TAF

Letiště :

Omsk, Rusko

zeměpisná šířka: 54-58N, zeměpisná délka: 073-18E, výška: 122 m

Aktuální stav počasí

Zpráva byla vytvořena před 24 minutami, v 16:00 UTC
Severozápadní vítr 2 kt
Teplota -16°C
Vlhkost vzduchu 92%
Tlak 1029 hPa
Viditelnost: 6000 m

METAR: UNOO 181600Z 32001MPS 6000 NSC M16/M17 Q1029 R07/810550 NOSIG RMK QFE763

Čas: 22:24 (16:24 UTC)

Předpověď počasí

Zpráva byla vytvořena před 2 hodinami a 44 minutami, v 13:40 UTC
Předpověď platná od 18 v 15 UTC do 19 v 15 UTC
vítr z různých směrů 2 kt
Viditelnost: 4100 m
kouřmo
Dočasný
od 18 v 16 UTC do 18 v 24 UTC
vítr z různých směrů 2 kt
Viditelnost: 1000 m
ve výšce 300 ft
kouřmo
Změna
od 19 v 04 UTC do 19 v 06 UTC
Jihojihovýchodní vítr 12 kt s nárazy do 21 kt
Oblačno až skoro zataženo ve výšce 2500 ft, Cumulonimbus.

TAF: UNOO 181340Z 1815/1915 VRB01MPS 4100 BR NSC TEMPO 1816/1824 VRB01MPS 1000 BR VV003 BECMG 1904/1906 16006G11MPS BKN025CB

Stav a předpovědi počasí z více než 4 000 letišť (zprávy METAR a TAF).

Červené a žluté tečky na mapě představují dostupné meteorologické stanice.

Když kurzor umístíte na tečku, zobrazí se název stanice.

Pak kliknutím zobrazíte stav a předpověď počasí.

Chcete-li změnit mapu, kliknutím na zelené tlačítko se znaménkem +mapu přiblížíte, kliknutím na zelené tlačítko se znaménkem – mapu oddálíte a kliknutím na zelené šipky přejdete na sousední mapy.


METAR-TAF: